Terminal Aerodrome Forecast
Issued by NWS

Home | Current Version | Previous Version | Text Only | Print | Product List | Glossary On
Versions: 1 2 3 4 5 6 7 8 9 10 11 12 13 14 15 16 17
123
FTUS43 KDLH 191751
TAFBRD
TAF
KBRD 191751Z 1918/2018 13010KT P6SM FEW120 BKN220
     FM192300 14010KT P6SM FEW110 BKN160 WS020/19040KT
     FM200300 14009KT P6SM SCT025 BKN100 WS020/20045KT
     FM201100 15011KT P6SM VCSH SCT020 OVC090 WS020/21040KT
     FM201400 16012G18KT 6SM -SHRA SCT020 BKN035 OVC060=

USA.gov is the U.S. government's official web portal to all federal, state and local government web resources and services.